CFS1074 KCLM-KSEA
Flight info
| Callsign | CFS1074 |
|---|---|
| Flight time | N/A |
| Altitude | 7000 |
| Route | WATTR JAWBN T487 SEA |
| Aircraft | C208/L-SDFGR/C |
Departure
| Time | 2026-04-13 03:54 |
|---|---|
| Airport | William R Fairchild International Airport (KCLM) |
Arrival
| Time | N/A |
|---|---|
| Airport | Seattle–Tacoma International Airport (KSEA) |
| Time | Latitude | Longitude | Altitude | Speed | Heading |
|---|---|---|---|---|---|
| 2026-04-13 03:47 | 48.11703 | -123.49369 | 283 ft | 0 kts | 20° |
| 2026-04-13 03:51 | 48.11712 | -123.49354 | 283 ft | 7 kts | 77° |
| 2026-04-13 03:51 | 48.11685 | -123.49190 | 286 ft | 23 kts | 106° |
| 2026-04-13 03:52 | 48.11650 | -123.49001 | 291 ft | 14 kts | 101° |
| 2026-04-13 03:52 | 48.11613 | -123.48774 | 294 ft | 27 kts | 103° |
| 2026-04-13 03:52 | 48.11609 | -123.48665 | 296 ft | 8 kts | 9° |
| 2026-04-13 03:52 | 48.11642 | -123.48656 | 295 ft | 10 kts | 10° |
| 2026-04-13 03:53 | 48.11691 | -123.48788 | 295 ft | 22 kts | 286° |
| 2026-04-13 03:53 | 48.11769 | -123.49248 | 380 ft | 56 kts | 277° |
| 2026-04-13 03:53 | 48.11752 | -123.49799 | 605 ft | 63 kts | 258° |
| 2026-04-13 03:53 | 48.12052 | -123.50154 | 739 ft | 98 kts | 33° |
| 2026-04-13 03:54 | 48.12296 | -123.49143 | 1077 ft | 100 kts | 70° |
| 2026-04-13 03:54 | 48.12594 | -123.48196 | 1351 ft | 108 kts | 53° |
| 2026-04-13 03:54 | 48.13096 | -123.47180 | 1374 ft | 133 kts | 46° |
| 2026-04-13 03:54 | 48.13733 | -123.46116 | 1423 ft | 140 kts | 42° |
| 2026-04-13 03:55 | 48.14395 | -123.45123 | 1641 ft | 128 kts | 38° |
| 2026-04-13 03:55 | 48.15039 | -123.44269 | 1899 ft | 120 kts | 34° |
| 2026-04-13 03:55 | 48.15687 | -123.43508 | 2157 ft | 117 kts | 31° |
| 2026-04-13 03:55 | 48.16350 | -123.42786 | 2436 ft | 119 kts | 32° |
| 2026-04-13 03:56 | 48.17031 | -123.42094 | 2686 ft | 119 kts | 28° |
| 2026-04-13 03:56 | 48.17734 | -123.41474 | 2939 ft | 116 kts | 24° |
| 2026-04-13 03:56 | 48.18453 | -123.40928 | 3192 ft | 115 kts | 21° |
| 2026-04-13 03:56 | 48.19180 | -123.40465 | 3448 ft | 112 kts | 10° |
| 2026-04-13 03:57 | 48.19918 | -123.40125 | 3700 ft | 110 kts | 9° |
| 2026-04-13 03:57 | 48.20475 | -123.39286 | 3918 ft | 123 kts | 75° |
| 2026-04-13 03:57 | 48.20279 | -123.38124 | 4137 ft | 115 kts | 137° |
| 2026-04-13 03:57 | 48.19967 | -123.37001 | 4402 ft | 119 kts | 101° |
| 2026-04-13 03:58 | 48.19804 | -123.35809 | 4666 ft | 115 kts | 104° |
| 2026-04-13 03:58 | 48.19630 | -123.34633 | 4900 ft | 120 kts | 103° |
| 2026-04-13 03:58 | 48.19451 | -123.33379 | 5142 ft | 128 kts | 102° |
| 2026-04-13 03:58 | 48.19265 | -123.32041 | 5399 ft | 134 kts | 102° |
| 2026-04-13 03:59 | 48.19071 | -123.30656 | 5661 ft | 138 kts | 102° |
| 2026-04-13 03:59 | 48.18872 | -123.29233 | 5928 ft | 140 kts | 102° |
| 2026-04-13 03:59 | 48.18674 | -123.27804 | 6188 ft | 141 kts | 102° |
| 2026-04-13 03:59 | 48.18473 | -123.26358 | 6438 ft | 142 kts | 102° |
| 2026-04-13 04:00 | 48.18272 | -123.24909 | 6679 ft | 142 kts | 102° |
| 2026-04-13 04:00 | 48.18069 | -123.23449 | 6882 ft | 146 kts | 101° |
| 2026-04-13 04:00 | 48.17850 | -123.21882 | 6897 ft | 159 kts | 102° |
| 2026-04-13 04:00 | 48.17609 | -123.20205 | 6894 ft | 169 kts | 102° |
| 2026-04-13 04:01 | 48.17364 | -123.18474 | 6892 ft | 173 kts | 102° |
| 2026-04-13 04:01 | 48.17117 | -123.16697 | 6886 ft | 175 kts | 102° |
| 2026-04-13 04:01 | 48.16872 | -123.14896 | 6882 ft | 177 kts | 101° |
| 2026-04-13 04:01 | 48.16624 | -123.13090 | 6872 ft | 177 kts | 102° |
| 2026-04-13 04:02 | 48.16370 | -123.11306 | 6869 ft | 175 kts | 102° |
| 2026-04-13 04:02 | 48.16121 | -123.09526 | 6862 ft | 174 kts | 102° |
| 2026-04-13 04:02 | 48.15871 | -123.07755 | 6860 ft | 174 kts | 102° |
| 2026-04-13 04:02 | 48.15623 | -123.05979 | 6856 ft | 175 kts | 102° |
| 2026-04-13 04:03 | 48.15372 | -123.04197 | 6843 ft | 175 kts | 102° |
| 2026-04-13 04:03 | 48.15120 | -123.02410 | 6848 ft | 176 kts | 102° |
| 2026-04-13 04:03 | 48.14866 | -123.00617 | 6824 ft | 176 kts | 102° |
| 2026-04-13 04:03 | 48.14613 | -122.98823 | 6825 ft | 176 kts | 102° |
| 2026-04-13 04:04 | 48.14359 | -122.97029 | 6815 ft | 175 kts | 102° |
| 2026-04-13 04:04 | 48.14084 | -122.95252 | 6807 ft | 175 kts | 109° |
| 2026-04-13 04:04 | 48.13442 | -122.93754 | 6785 ft | 174 kts | 137° |
| 2026-04-13 04:04 | 48.12463 | -122.92727 | 6781 ft | 172 kts | 151° |
| 2026-04-13 04:05 | 48.11439 | -122.91816 | 6784 ft | 171 kts | 151° |
| 2026-04-13 04:05 | 48.10420 | -122.90885 | 6781 ft | 171 kts | 150° |
| 2026-04-13 04:05 | 48.09402 | -122.89951 | 6779 ft | 171 kts | 149° |
| 2026-04-13 04:05 | 48.08385 | -122.89024 | 6775 ft | 171 kts | 150° |
| 2026-04-13 04:06 | 48.07373 | -122.88086 | 6774 ft | 172 kts | 149° |
| 2026-04-13 04:06 | 48.06351 | -122.87158 | 6775 ft | 171 kts | 150° |
| 2026-04-13 04:06 | 48.05329 | -122.86245 | 6774 ft | 171 kts | 150° |